Aviation Digital Data Service (ADDS)

Output produced by TAFs form (1742 UTC 18 January 2018)
found at http://aviationweather.gov/adds/tafs/
 
KLND 181720Z 1818/1918 VRB06KT P6SM BKN250 
     FM190900 23011KT P6SM SCT250 WS020/24050KT